GCHI/VDE METAR and TAF weather

Enter ICAO airport designator
Station Type Date Time Source
GCHI METAR 2022/12/04 05:30 UTC NOAA

GCHI 040530Z AUTO 30007KT 270V350 9999 FEW041 SCT050 BKN059 18/12 Q1009


Station Type Date Time Source
GCHI Decoded METAR 2022/12/04 05:30 UTC NOAA

Hierro / Aeropuerto, Spain (GCHI) 27-49N 017-53W 32M
Dec 04, 2022 - 12:30 AM EST / 2022.12.04 0530 UTC
Wind: from the WNW (300 degrees) at 8 MPH (7 KT) (direction variable):0
Visibility: greater than 7 mile(s):0
Sky conditions: mostly cloudy
Temperature: 64 F (18 C)
Dew Point: 53 F (12 C)
Relative Humidity: 67%
Pressure (altimeter): 29.80 in. Hg (1009 hPa)
ob: GCHI 040530Z AUTO 30007KT 270V350 9999 FEW041 SCT050 BKN059 18/12 Q1009
cycle: 5

Station Type Date Time Source
GCHI TAF 2022/12/04 03:00 UTC NOAA

TAF GCHI 040200Z 0403/0503 28007KT 9999 FEW030 TX22/0414Z TN18/0406Z

Example: see airport list